Time;durP1;ratioP1;P1;durP2;ratioP2;P2;SDS_P1;SDS_P2;PMS_P1;PMS_P2;Temp;Humidity;BMP_temperature;BMP_pressure;BME280_temperature;BME280_humidity;BME280_pressure;Samples;Min_cycle;Max_cycle;Signal;HPM_P1;HPM_P2
2022/05/25 00:00:09;;;;;;;;;2.00;2.00;;;;;17.28;53.05;101141.94;5076187;28;46007;-83
2022/05/25 00:02:35;;;;;;;;;1.00;1.00;;;;;17.26;52.95;101134.94;5064200;27;45423;-82
2022/05/25 00:05:01;;;;;;;;;3.00;3.00;;;;;17.24;53.05;101140.41;5077260;27;45306;-82
2022/05/25 00:07:27;;;;;;;;;2.00;2.00;;;;;17.09;52.99;101117.16;5069745;28;45496;-83
2022/05/25 00:09:52;;;;;;;;;3.00;2.00;;;;;17.18;53.23;101134.56;5057254;28;45443;-82
2022/05/25 00:12:20;;;;;;;;;3.33;2.00;;;;;17.15;53.61;101130.25;5057303;28;45341;-82
2022/05/25 00:14:45;;;;;;;;;3.00;3.00;;;;;16.88;53.56;101085.28;5064964;28;45557;-82
2022/05/25 00:17:11;;;;;;;;;2.00;2.00;;;;;17.01;53.34;101104.19;5057943;28;45431;-82
2022/05/25 00:22:20;;;;;;;;;1.00;1.00;;;;;17.11;53.50;101130.53;5077443;28;45408;-83
2022/05/25 00:24:46;;;;;;;;;1.33;1.33;;;;;17.08;53.43;101127.06;5075657;27;45329;-83
2022/05/25 00:27:11;;;;;;;;;2.00;2.00;;;;;17.03;53.82;101129.22;5071252;27;45531;-82
2022/05/25 00:29:36;;;;;;;;;2.33;1.00;;;;;16.95;53.80;101114.50;5062841;28;46190;-83
2022/05/25 00:32:04;;;;;;;;;3.00;3.00;;;;;17.02;54.13;101135.56;5065372;28;45281;-82
2022/05/25 00:34:29;;;;;;;;;1.00;1.00;;;;;17.00;54.10;101137.50;5071586;28;45325;-83
2022/05/25 00:36:55;;;;;;;;;0.67;0.67;;;;;16.90;54.27;101120.19;5059510;27;45605;-83
2022/05/25 00:39:23;;;;;;;;;0.00;0.00;;;;;16.95;54.14;101130.66;5059589;28;45511;-82
2022/05/25 00:41:49;;;;;;;;;2.00;1.67;;;;;16.94;54.60;101137.88;5072733;27;45765;-83
2022/05/25 00:44:15;;;;;;;;;1.00;1.00;;;;;16.87;54.61;101137.41;5073099;28;45406;-83
2022/05/25 00:46:41;;;;;;;;;0.67;0.67;;;;;16.91;54.69;101148.84;5074706;28;45566;-83
2022/05/25 00:49:16;;;;;;;;;1.67;0.00;;;;;16.92;54.87;101147.03;5073167;27;46737;-82
2022/05/25 00:51:46;;;;;;;;;0.00;0.00;;;;;16.92;55.11;101147.88;5075844;27;45404;-82
2022/05/25 00:54:17;;;;;;;;;0.33;0.33;;;;;16.86;54.79;101150.97;5067275;28;45282;-82
2022/05/25 00:56:46;;;;;;;;;0.00;0.00;;;;;16.83;55.19;101138.59;5064281;28;45369;-82
2022/05/25 00:59:19;;;;;;;;;0.00;0.00;;;;;16.80;54.87;101144.13;5076562;27;46446;-82
2022/05/25 01:01:44;;;;;;;;;2.00;1.00;;;;;16.84;55.14;101158.28;5062221;27;45436;-83
2022/05/25 01:04:10;;;;;;;;;0.00;0.00;;;;;16.78;55.09;101150.56;5069285;28;45331;-82
2022/05/25 01:07:02;;;;;;;;;1.00;1.00;;;;;16.78;55.18;101153.25;5066134;28;45318;-82
2022/05/25 01:09:43;;;;;;;;;1.00;1.00;;;;;16.71;54.86;101157.28;5047605;28;45516;-83
2022/05/25 01:12:46;;;;;;;;;1.00;1.00;;;;;16.71;55.06;101163.53;5054564;28;45816;-83
2022/05/25 01:15:38;;;;;;;;;2.00;2.00;;;;;16.72;55.02;101164.41;5058022;28;45326;-82
2022/05/25 01:18:27;;;;;;;;;1.00;1.00;;;;;16.61;55.10;101155.16;5058106;28;45609;-82
2022/05/25 01:21:21;;;;;;;;;2.00;2.00;;;;;16.55;55.34;101144.81;5046339;28;45421;-82
2022/05/25 01:24:00;;;;;;;;;0.00;0.00;;;;;16.71;55.20;101170.75;5046051;28;45391;-83
2022/05/25 01:26:28;;;;;;;;;2.00;1.00;;;;;16.68;55.37;101169.97;5057990;28;45448;-82
2022/05/25 01:29:21;;;;;;;;;1.00;1.00;;;;;16.64;55.38;101173.81;5040324;28;45574;-83
2022/05/25 01:32:35;;;;;;;;;1.33;1.00;;;;;16.63;55.60;101176.63;5056843;28;45502;-83
2022/05/25 01:35:20;;;;;;;;;1.00;1.00;;;;;16.47;55.33;101165.94;5039424;28;45513;-83
2022/05/25 01:37:58;;;;;;;;;1.00;1.00;;;;;16.39;55.82;101149.41;5057074;28;45386;-82
2022/05/25 01:40:46;;;;;;;;;0.00;0.00;;;;;16.51;55.93;101186.31;5039152;28;45560;-83
2022/05/25 01:43:18;;;;;;;;;0.00;0.00;;;;;16.50;56.06;101189.09;5055049;28;45403;-83
2022/05/25 01:45:49;;;;;;;;;0.00;0.00;;;;;16.36;55.82;101169.25;5060855;28;45562;-83
2022/05/25 01:48:17;;;;;;;;;0.67;0.33;;;;;16.45;56.04;101186.69;5074888;27;45418;-83
2022/05/25 01:50:51;;;;;;;;;0.33;0.33;;;;;16.36;56.19;101179.16;5059927;28;45353;-83
2022/05/25 01:53:21;;;;;;;;;1.00;1.00;;;;;16.26;56.64;101160.03;5071102;28;45525;-83
2022/05/25 01:55:52;;;;;;;;;1.33;1.00;;;;;16.40;56.67;101176.19;5077585;28;45451;-83
2022/05/25 01:58:21;;;;;;;;;1.33;1.33;;;;;16.41;56.70;101185.13;5079735;27;45483;-82
2022/05/25 02:00:50;;;;;;;;;0.67;0.67;;;;;16.31;56.88;101173.22;5068770;27;45611;-83
2022/05/25 02:06:22;;;;;;;;;2.00;2.00;;;;;16.38;56.54;101190.69;5070082;28;45348;-83
2022/05/25 02:09:12;;;;;;;;;1.00;1.00;;;;;16.36;56.72;101193.47;5072463;27;45467;-82
2022/05/25 02:11:42;;;;;;;;;2.00;2.00;;;;;16.20;56.98;101180.13;5077395;28;45438;-83
2022/05/25 02:14:42;;;;;;;;;1.00;1.00;;;;;16.25;56.75;101195.97;5077945;27;45442;-82
2022/05/25 02:17:32;;;;;;;;;1.33;1.33;;;;;16.18;57.17;101187.41;5070978;27;45394;-82
2022/05/25 02:20:15;;;;;;;;;1.00;1.00;;;;;16.24;57.25;101205.84;5076250;28;45533;-82
2022/05/25 02:22:45;;;;;;;;;1.67;1.67;;;;;16.25;57.31;101204.03;5075186;28;45417;-83
2022/05/25 02:25:34;;;;;;;;;1.00;1.00;;;;;16.25;57.11;101212.13;5068355;28;45618;-83
2022/05/25 02:28:35;;;;;;;;;1.67;1.67;;;;;16.22;57.17;101210.47;5066688;28;45501;-83
2022/05/25 02:31:04;;;;;;;;;1.00;1.00;;;;;16.21;57.18;101210.56;5033627;28;45780;-83
2022/05/25 02:33:43;;;;;;;;;2.00;2.00;;;;;16.13;57.57;101200.28;5030736;28;45569;-82
2022/05/25 02:36:11;;;;;;;;;0.33;0.33;;;;;16.15;57.32;101206.41;5021664;28;46073;-82
2022/05/25 02:38:39;;;;;;;;;1.00;1.00;;;;;16.14;57.49;101219.94;5040236;28;45449;-82
2022/05/25 02:41:30;;;;;;;;;0.00;0.00;;;;;16.12;57.88;101213.78;5017338;28;45467;-83
2022/05/25 02:43:57;;;;;;;;;1.67;1.67;;;;;16.10;57.46;101211.19;5024125;28;45303;-83
2022/05/25 02:46:23;;;;;;;;;0.00;0.00;;;;;16.13;57.74;101228.97;5029679;28;45987;-83
2022/05/25 02:48:49;;;;;;;;;0.00;0.00;;;;;16.05;57.54;101224.03;5029071;28;45325;-82
2022/05/25 02:51:14;;;;;;;;;0.33;0.33;;;;;16.04;57.74;101219.63;5016297;28;45581;-83
2022/05/25 02:53:40;;;;;;;;;0.00;0.00;;;;;16.01;57.62;101217.09;5021787;28;45516;-82
2022/05/25 02:56:06;;;;;;;;;1.67;0.00;;;;;15.96;57.82;101205.75;5025026;28;48516;-83
2022/05/25 02:58:31;;;;;;;;;1.67;1.67;;;;;16.09;57.72;101238.19;5035829;28;45647;-83
2022/05/25 03:00:57;;;;;;;;;1.00;1.00;;;;;16.10;58.09;101237.22;5035937;28;45513;-83
2022/05/25 03:03:23;;;;;;;;;1.00;1.00;;;;;16.10;57.76;101239.91;5030536;28;45561;-83
2022/05/25 03:05:48;;;;;;;;;1.00;1.00;;;;;16.09;57.95;101241.75;5035277;28;45655;-82
2022/05/25 03:08:14;;;;;;;;;1.67;1.67;;;;;16.04;58.25;101233.94;5070040;28;45515;-82
2022/05/25 03:10:39;;;;;;;;;1.00;1.00;;;;;16.07;58.14;101249.03;5064621;28;45476;-83
2022/05/25 03:13:06;;;;;;;;;3.00;3.00;;;;;16.05;58.05;101242.88;5078355;27;45654;-83
2022/05/25 03:15:32;;;;;;;;;1.00;1.00;;;;;16.08;58.37;101255.25;5059251;27;46142;-83
2022/05/25 03:17:58;;;;;;;;;2.00;2.00;;;;;16.05;58.46;101253.63;5062520;28;45471;-82
2022/05/25 03:20:23;;;;;;;;;2.00;2.00;;;;;15.92;58.33;101239.16;5073315;27;45515;-83
2022/05/25 03:22:49;;;;;;;;;1.00;1.00;;;;;15.99;58.56;101249.47;5078284;28;45443;-82
2022/05/25 03:25:14;;;;;;;;;3.00;3.00;;;;;15.98;58.78;101261.19;5076960;28;45713;-83
2022/05/25 03:27:40;;;;;;;;;3.67;2.67;;;;;15.94;58.91;101259.63;5076312;27;45582;-83
2022/05/25 03:30:07;;;;;;;;;3.33;2.00;;;;;15.87;58.97;101249.31;5062389;27;45277;-83
2022/05/25 03:32:32;;;;;;;;;3.00;3.00;;;;;15.85;59.43;101256.59;5073793;28;45559;-83
2022/05/25 03:34:59;;;;;;;;;3.00;1.33;;;;;15.96;59.28;101281.03;5076620;28;45650;-83
2022/05/25 03:37:25;;;;;;;;;1.33;1.33;;;;;15.93;59.56;101282.09;5066661;27;45419;-83
2022/05/25 03:39:50;;;;;;;;;2.33;2.33;;;;;15.89;59.46;101275.16;5075830;27;45800;-83
2022/05/25 03:42:18;;;;;;;;;1.67;1.67;;;;;15.93;59.43;101297.34;5075626;28;45479;-83
2022/05/25 03:44:43;;;;;;;;;1.00;1.00;;;;;15.91;59.43;101294.75;5076845;27;45896;-82
2022/05/25 03:47:09;;;;;;;;;2.00;2.00;;;;;15.86;59.30;101291.47;5074036;27;45378;-82
2022/05/25 03:49:34;;;;;;;;;1.33;1.33;;;;;15.86;59.43;101288.78;5074809;27;45416;-82
2022/05/25 03:52:00;;;;;;;;;1.00;1.00;;;;;15.84;59.56;101285.31;5078504;28;45382;-82
2022/05/25 03:54:26;;;;;;;;;3.33;3.00;;;;;15.98;59.52;101306.88;5075260;28;46305;-82
2022/05/25 03:56:52;;;;;;;;;1.67;1.33;;;;;16.00;59.31;101315.72;5078054;27;45452;-82
2022/05/25 03:59:18;;;;;;;;;0.67;0.00;;;;;15.93;59.24;101300.03;5076044;27;45498;-82
2022/05/25 04:01:44;;;;;;;;;2.67;1.33;;;;;15.85;59.51;101280.78;5075204;28;45587;-82
2022/05/25 04:04:09;;;;;;;;;1.00;1.00;;;;;16.01;59.09;101312.09;5075394;27;45956;-82
2022/05/25 04:06:34;;;;;;;;;0.67;0.67;;;;;16.01;59.17;101305.84;5073156;27;45572;-82
2022/05/25 04:09:00;;;;;;;;;3.00;1.33;;;;;15.96;59.28;101311.47;5077949;27;45801;-82
2022/05/25 04:11:26;;;;;;;;;1.67;1.67;;;;;15.86;59.21;101288.78;5076804;28;45588;-83
2022/05/25 04:13:51;;;;;;;;;3.67;1.33;;;;;15.96;59.48;101314.16;5067894;28;47437;-83
2022/05/25 04:16:17;;;;;;;;;2.00;2.00;;;;;15.89;59.44;101301.16;5071916;28;45376;-83
2022/05/25 04:18:42;;;;;;;;;2.00;1.00;;;;;15.90;59.53;101303.78;5072347;28;45579;-82
2022/05/25 04:21:08;;;;;;;;;1.00;1.00;;;;;15.97;59.42;101323.97;5078082;28;45395;-82
2022/05/25 04:23:34;;;;;;;;;2.33;1.00;;;;;15.95;59.54;101325.88;5064191;27;45382;-83
2022/05/25 04:25:59;;;;;;;;;1.33;1.33;;;;;15.97;59.48;101321.28;5073411;28;45679;-82
2022/05/25 04:28:24;;;;;;;;;4.00;3.00;;;;;15.97;59.44;101321.28;5070604;27;46046;-83
2022/05/25 04:30:50;;;;;;;;;2.00;2.00;;;;;15.91;60.00;101318.94;5073055;27;45385;-82
2022/05/25 04:33:16;;;;;;;;;3.00;1.00;;;;;15.95;59.56;101320.50;5071942;28;45594;-82
2022/05/25 04:35:43;;;;;;;;;1.33;1.33;;;;;15.84;59.59;101296.06;5073561;28;45428;-82
2022/05/25 04:38:12;;;;;;;;;2.00;2.00;;;;;15.87;59.68;101308.44;5069366;28;45459;-82
2022/05/25 04:50:34;;;;;;;;;1.00;1.00;;;;;16.03;59.40;101336.19;5241496;22;45440;-82
2022/05/25 04:53:00;;;;;;;;;1.67;1.00;;;;;16.03;59.64;101346.94;5071745;28;45257;-82
2022/05/25 04:58:21;;;;;;;;;2.00;2.00;;;;;16.03;59.62;101360.41;5064659;28;45709;-84
2022/05/25 05:00:47;;;;;;;;;2.00;2.00;;;;;15.80;59.35;101324.06;5071778;28;45460;-84
2022/05/25 05:03:12;;;;;;;;;3.00;3.00;;;;;15.91;59.37;101335.06;5074332;27;45521;-82
2022/05/25 05:05:38;;;;;;;;;4.67;2.00;;;;;16.07;59.67;101361.97;5067088;28;45608;-84
2022/05/25 05:08:04;;;;;;;;;3.00;2.00;;;;;16.02;59.90;101361.38;5070340;27;45488;-83
2022/05/25 05:10:29;;;;;;;;;2.00;2.00;;;;;16.04;59.48;101354.09;5074315;28;45476;-83
2022/05/25 05:12:54;;;;;;;;;3.00;3.00;;;;;16.12;59.62;101373.31;5071570;28;45579;-84
2022/05/25 05:15:21;;;;;;;;;3.67;3.67;;;;;16.04;59.23;101368.38;5071703;28;46024;-84
2022/05/25 05:17:47;;;;;;;;;2.00;2.00;;;;;16.12;59.23;101381.38;5070208;28;45492;-83
2022/05/25 05:20:12;;;;;;;;;3.00;3.00;;;;;15.96;59.62;101354.50;5070813;28;45467;-81
2022/05/25 05:22:37;;;;;;;;;3.00;3.00;;;;;16.15;59.63;101391.09;5065607;28;45542;-81
2022/05/25 05:25:03;;;;;;;;;8.67;8.67;;;;;16.10;59.26;101369.00;5069336;27;46112;-82
2022/05/25 05:27:29;;;;;;;;;6.33;3.33;;;;;16.11;58.97;101368.91;5075597;27;45445;-82
2022/05/25 05:29:59;;;;;;;;;3.00;3.00;;;;;16.21;59.14;101382.69;5064994;28;45341;-81
2022/05/25 05:32:25;;;;;;;;;3.00;3.00;;;;;16.20;59.27;101375.56;5076397;27;45467;-83
2022/05/25 05:34:51;;;;;;;;;2.00;1.00;;;;;16.28;59.06;101377.84;5061774;28;45435;-83
2022/05/25 05:37:23;;;;;;;;;4.00;2.00;;;;;16.23;59.39;101360.13;5072260;27;45464;-82
2022/05/25 05:39:54;;;;;;;;;4.00;2.33;;;;;16.33;59.00;101360.47;5068449;28;45399;-82
2022/05/25 05:42:23;;;;;;;;;4.00;1.67;;;;;16.29;58.54;101341.91;5075554;27;45357;-81
2022/05/25 05:44:53;;;;;;;;;5.00;3.33;;;;;16.37;58.59;101353.09;5073350;28;46807;-81
2022/05/25 05:47:24;;;;;;;;;3.00;3.00;;;;;16.40;58.02;101358.28;5067697;28;45636;-81
2022/05/25 05:49:49;;;;;;;;;1.33;1.33;;;;;16.44;57.68;101357.16;5055891;28;45409;-81
2022/05/25 05:52:15;;;;;;;;;3.00;3.00;;;;;16.45;57.65;101367.81;5052988;28;45370;-81
2022/05/25 05:54:41;;;;;;;;;1.00;1.00;;;;;16.20;57.61;101336.13;5049079;28;45991;-80
2022/05/25 05:57:07;;;;;;;;;1.67;1.67;;;;;16.25;58.38;101369.00;5046716;28;45439;-82
2022/05/25 05:59:32;;;;;;;;;60.00;48.00;;;;;16.32;59.19;101364.13;5053629;28;45663;-82
2022/05/25 06:01:57;;;;;;;;;6.67;4.67;;;;;16.44;60.18;101374.16;5047934;28;45443;-80
2022/05/25 06:04:23;;;;;;;;;4.00;2.00;;;;;16.58;58.60;101378.75;5046978;28;52837;-79
2022/05/25 06:06:49;;;;;;;;;2.67;2.33;;;;;16.64;57.91;101372.97;5048179;28;45688;-80
2022/05/25 06:09:16;;;;;;;;;2.33;2.33;;;;;16.77;57.16;101386.59;5053400;28;45459;-79
2022/05/25 06:11:42;;;;;;;;;4.00;4.00;;;;;16.72;58.39;101377.06;5050953;28;45555;-79
2022/05/25 06:14:10;;;;;;;;;2.00;2.00;;;;;16.80;57.24;101382.88;5053733;28;47045;-80
2022/05/25 06:19:30;;;;;;;;;4.67;3.00;;;;;17.01;58.54;101384.28;5056025;28;45533;-79
2022/05/25 06:22:10;;;;;;;;;0.67;0.67;;;;;17.23;57.06;101394.63;5050372;28;45515;-79
2022/05/25 06:24:42;;;;;;;;;1.00;1.00;;;;;17.23;55.89;101400.03;5050645;28;45340;-80
2022/05/25 06:27:11;;;;;;;;;1.00;1.00;;;;;17.25;55.04;101400.75;5049716;28;45751;-79
2022/05/25 06:29:38;;;;;;;;;1.67;1.67;;;;;17.28;54.49;101411.38;5043658;28;45414;-81
2022/05/25 06:32:09;;;;;;;;;1.00;1.00;;;;;17.20;55.47;101407.41;5051781;28;45506;-81
2022/05/25 06:34:37;;;;;;;;;2.00;2.00;;;;;17.15;54.44;101412.22;5049757;28;46299;-80
2022/05/25 06:37:03;;;;;;;;;8.33;5.67;;;;;16.97;56.27;101401.56;5049756;28;45590;-79
2022/05/25 06:39:34;;;;;;;;;4.00;1.33;;;;;17.22;54.65;101427.91;5050589;28;45610;-80
2022/05/25 06:42:00;;;;;;;;;2.00;1.00;;;;;17.18;54.47;101422.78;5051166;28;45534;-81
2022/05/25 06:44:25;;;;;;;;;5.00;4.00;;;;;17.28;58.22;101430.25;5050421;28;45777;-80
2022/05/25 06:46:51;;;;;;;;;3.00;3.00;;;;;17.34;56.52;101417.34;5050606;28;45570;-80
2022/05/25 06:49:17;;;;;;;;;0.00;0.00;;;;;17.47;54.15;101424.59;5050872;28;45520;-79
2022/05/25 06:51:43;;;;;;;;;2.33;1.00;;;;;17.45;52.81;101410.34;5041259;28;45555;-80
2022/05/25 06:54:09;;;;;;;;;0.33;0.33;;;;;17.58;52.21;101431.97;5042407;28;45450;-80
2022/05/25 06:56:35;;;;;;;;;1.00;1.00;;;;;17.54;52.56;101427.78;5042556;28;45452;-80
2022/05/25 06:59:01;;;;;;;;;3.33;2.00;;;;;17.68;54.05;101443.09;5044520;28;45522;-80
2022/05/25 07:01:27;;;;;;;;;1.00;0.00;;;;;17.63;51.84;101415.53;5041858;28;45661;-80
2022/05/25 07:03:53;;;;;;;;;1.00;1.00;;;;;17.74;53.26;101426.50;5047843;28;45322;-80
2022/05/25 07:06:20;;;;;;;;;3.33;1.00;;;;;17.95;52.37;101445.88;5050155;28;45417;-79
2022/05/25 07:08:45;;;;;;;;;1.67;1.00;;;;;18.00;53.55;101440.22;5048335;28;45520;-80
2022/05/25 07:11:12;;;;;;;;;0.00;0.00;;;;;18.03;51.83;101427.41;5057416;28;45523;-80
2022/05/25 07:13:39;;;;;;;;;0.00;0.00;;;;;18.17;51.13;101450.81;5050857;28;46172;-80
2022/05/25 07:16:07;;;;;;;;;4.00;4.00;;;;;18.18;50.71;101444.44;5047370;28;45793;-81
2022/05/25 07:18:33;;;;;;;;;1.00;1.00;;;;;18.05;50.51;101430.88;5050741;28;45558;-81
2022/05/25 07:21:06;;;;;;;;;0.67;0.67;;;;;18.32;50.72;101454.31;5044454;28;45524;-81
2022/05/25 07:23:33;;;;;;;;;0.00;0.00;;;;;18.40;50.58;101470.00;5050380;28;45996;-81
2022/05/25 07:25:59;;;;;;;;;3.00;0.67;;;;;18.37;52.33;101464.81;5044488;28;45513;-80
2022/05/25 07:28:24;;;;;;;;;1.00;0.00;;;;;18.53;48.99;101485.31;5048858;28;45418;-80
2022/05/25 07:30:54;;;;;;;;;1.00;1.00;;;;;18.50;49.84;101480.13;5052273;28;45400;-82
2022/05/25 07:33:19;;;;;;;;;1.00;1.00;;;;;18.47;50.69;101461.44;5054606;28;48279;-82
2022/05/25 07:35:45;;;;;;;;;0.00;0.00;;;;;18.49;50.72;101451.38;5052492;28;45454;-82
2022/05/25 07:38:11;;;;;;;;;0.67;0.67;;;;;18.75;49.09;101473.09;5043344;28;45524;-81
2022/05/25 07:40:40;;;;;;;;;2.00;0.00;;;;;18.70;48.22;101456.34;5045603;28;45628;-82
2022/05/25 07:43:11;;;;;;;;;0.33;0.33;;;;;18.67;47.82;101456.56;5051384;28;45442;-82
2022/05/25 07:45:36;;;;;;;;;1.00;1.00;;;;;18.92;49.49;101485.53;5043227;28;45479;-81
2022/05/25 07:48:02;;;;;;;;;0.00;0.00;;;;;18.85;48.00;101458.06;5052101;28;45777;-80
2022/05/25 07:50:28;;;;;;;;;0.00;0.00;;;;;18.68;46.70;101426.75;5043427;28;45489;-81
2022/05/25 07:52:57;;;;;;;;;2.00;0.00;;;;;19.04;45.22;101479.28;5050006;28;45505;-81
2022/05/25 07:55:22;;;;;;;;;0.00;0.00;;;;;19.04;46.58;101476.59;5049569;28;45431;-80
2022/05/25 07:57:48;;;;;;;;;0.00;0.00;;;;;19.03;45.20;101476.69;5047135;28;45622;-79
2022/05/25 08:00:15;;;;;;;;;1.00;0.00;;;;;19.09;43.99;101489.78;5049885;28;45460;-79
2022/05/25 08:05:47;;;;;;;;;0.00;0.00;;;;;19.11;43.20;101496.81;5046238;28;45641;-79
2022/05/25 08:08:15;;;;;;;;;0.00;0.00;;;;;19.00;44.23;101463.38;5044173;28;46432;-80
2022/05/25 08:10:44;;;;;;;;;1.67;0.00;;;;;19.22;44.77;101487.09;5041934;28;45532;-81
2022/05/25 08:13:13;;;;;;;;;0.00;0.00;;;;;19.18;42.99;101487.31;5048765;28;45524;-80
2022/05/25 08:15:42;;;;;;;;;0.00;0.00;;;;;19.06;44.95;101458.44;5049958;28;45501;-79
2022/05/25 08:18:12;;;;;;;;;0.00;0.00;;;;;19.21;42.43;101477.28;5049417;28;45506;-80
2022/05/25 08:20:38;;;;;;;;;3.67;2.67;;;;;19.35;43.07;101502.38;5054026;28;45655;-81
2022/05/25 08:23:08;;;;;;;;;0.00;0.00;;;;;19.33;42.03;101493.50;5044946;28;46095;-80
2022/05/25 08:25:34;;;;;;;;;0.00;0.00;;;;;19.50;40.38;101491.47;5046961;28;45622;-80
2022/05/25 08:28:01;;;;;;;;;0.00;0.00;;;;;19.38;41.14;101468.88;5048948;28;45418;-82
2022/05/25 08:30:26;;;;;;;;;0.00;0.00;;;;;19.57;41.00;101487.38;5053640;28;45373;-82
2022/05/25 08:32:52;;;;;;;;;0.00;0.00;;;;;19.55;40.17;101475.78;5053764;28;46103;-81
2022/05/25 08:35:18;;;;;;;;;0.00;0.00;;;;;19.95;40.59;101500.94;5049220;28;45417;-82
2022/05/25 08:37:43;;;;;;;;;0.00;0.00;;;;;20.25;39.83;101502.41;5042686;28;45489;-82
2022/05/25 08:40:12;;;;;;;;;0.00;0.00;;;;;20.45;39.69;101487.44;5047901;28;45444;-85
2022/05/25 08:42:55;;;;;;;;;0.00;0.00;;;;;20.81;36.92;101492.00;5053185;28;46087;-84
2022/05/25 08:45:26;;;;;;;;;0.00;0.00;;;;;21.19;37.41;101490.94;5040786;28;45391;-78
2022/05/25 08:47:56;;;;;;;;;0.00;0.00;;;;;21.85;36.56;101490.38;5041658;28;45559;-77
2022/05/25 08:50:23;;;;;;;;;0.00;0.00;;;;;22.39;33.75;101486.94;5043101;28;45390;-79
2022/05/25 08:52:48;;;;;;;;;1.00;0.00;;;;;22.94;34.25;101479.66;5048907;28;45362;-80
2022/05/25 08:55:39;;;;;;;;;1.00;0.00;;;;;23.62;34.88;101482.00;5040617;28;45766;-78
2022/05/25 08:58:09;;;;;;;;;0.00;0.00;;;;;24.33;33.39;101492.16;5047780;28;45416;-79
2022/05/25 09:00:35;;;;;;;;;0.00;0.00;;;;;24.82;32.34;101476.78;5043431;28;45565;-78
2022/05/25 09:03:25;;;;;;;;;0.00;0.00;;;;;25.61;31.61;101492.97;5046142;28;45514;-78
2022/05/25 09:06:15;;;;;;;;;1.00;0.00;;;;;26.28;30.19;101499.25;5044238;28;45442;-78
2022/05/25 09:09:09;;;;;;;;;0.00;0.00;;;;;26.96;29.84;101511.69;5039890;28;45419;-77
2022/05/25 09:11:40;;;;;;;;;0.00;0.00;;;;;27.54;28.19;101505.72;5050912;28;45630;-77
2022/05/25 09:14:48;;;;;;;;;0.00;0.00;;;;;27.94;27.98;101479.66;5040036;28;46561;-78
2022/05/25 09:17:22;;;;;;;;;0.00;0.00;;;;;28.56;25.73;101501.34;5043773;28;45357;-79
2022/05/25 09:19:47;;;;;;;;;0.00;0.00;;;;;28.87;26.50;101491.66;5044712;28;45520;-78
2022/05/25 09:22:23;;;;;;;;;0.00;0.00;;;;;29.14;26.04;101466.69;5048424;28;45622;-77
2022/05/25 09:24:50;;;;;;;;;0.00;0.00;;;;;29.29;25.76;101439.41;5050568;28;45443;-77
2022/05/25 09:27:18;;;;;;;;;0.00;0.00;;;;;29.93;23.78;101486.19;5047211;28;45770;-80
2022/05/25 09:29:44;;;;;;;;;0.00;0.00;;;;;29.95;24.75;101439.28;5047131;28;45237;-78
2022/05/25 09:32:34;;;;;;;;;0.00;0.00;;;;;30.59;24.25;101489.53;5042255;28;45334;-80
2022/05/25 09:35:04;;;;;;;;;3.00;3.00;;;;;30.93;24.24;101482.84;5051473;28;45645;-78
2022/05/25 09:37:34;;;;;;;;;0.00;0.00;;;;;31.26;23.92;101474.31;5045251;28;45556;-79
2022/05/25 09:40:38;;;;;;;;;0.00;0.00;;;;;31.71;23.35;101478.88;5045711;28;45527;-78
2022/05/25 09:43:11;;;;;;;;;0.00;0.00;;;;;32.17;22.99;101484.25;5039636;28;45768;-79
2022/05/25 09:45:48;;;;;;;;;0.00;0.00;;;;;32.41;22.08;101471.19;5053403;28;46170;-78
2022/05/25 09:48:26;;;;;;;;;0.00;0.00;;;;;32.86;21.70;101507.84;5051259;28;45494;-79
2022/05/25 09:51:03;;;;;;;;;0.00;0.00;;;;;33.34;21.58;101487.91;5044811;28;45414;-78
2022/05/25 09:53:43;;;;;;;;;1.00;0.00;;;;;33.97;21.00;101496.28;5048686;28;45435;-79
2022/05/25 09:56:21;;;;;;;;;0.00;0.00;;;;;34.46;20.71;101448.22;5048145;28;45522;-79
2022/05/25 09:58:54;;;;;;;;;0.00;0.00;;;;;35.41;19.75;101487.00;5045095;28;45357;-79
2022/05/25 10:01:31;;;;;;;;;0.00;0.00;;;;;36.19;18.63;101495.44;5048145;28;45671;-79
2022/05/25 10:03:57;;;;;;;;;0.33;0.00;;;;;37.07;17.73;101483.72;5049302;28;45517;-78
2022/05/25 10:06:31;;;;;;;;;0.00;0.00;;;;;38.03;17.13;101478.81;5048582;28;45725;-79
2022/05/25 10:09:16;;;;;;;;;0.00;0.00;;;;;38.98;15.79;101480.97;5046791;28;45479;-80
2022/05/25 10:11:48;;;;;;;;;1.33;0.00;;;;;39.66;14.70;101470.41;5046918;28;45508;-88
2022/05/25 10:14:35;;;;;;;;;0.00;0.00;;;;;40.19;13.63;101433.06;5047963;28;45600;-87
2022/05/25 10:17:14;;;;;;;;;0.00;0.00;;;;;41.45;13.48;101510.41;5040403;28;47062;-85
2022/05/25 10:19:49;;;;;;;;;0.00;0.00;;;;;42.10;12.89;101468.81;5053835;28;45354;-89
2022/05/25 10:22:40;;;;;;;;;0.00;0.00;;;;;42.69;12.67;101498.97;5051479;28;45511;-85
2022/05/25 10:25:12;;;;;;;;;16.67;15.67;;;;;42.98;12.66;101497.59;5049111;28;45261;-87
2022/05/25 10:27:44;;;;;;;;;0.00;0.00;;;;;43.10;12.61;101499.41;5051056;28;46386;-83
2022/05/25 10:39:13;;;;;;;;;0.00;0.00;;;;;40.67;13.32;101445.78;5046225;28;45411;-84
2022/05/25 10:41:39;;;;;;;;;0.00;0.00;;;;;39.89;13.92;101462.03;5051525;28;45468;-85
2022/05/25 10:44:34;;;;;;;;;1.00;0.00;;;;;39.36;14.48;101490.94;5047014;28;45306;-84
2022/05/25 10:47:00;;;;;;;;;1.00;0.00;;;;;38.33;14.07;101483.56;5047873;28;45436;-87
2022/05/25 10:49:38;;;;;;;;;0.00;0.00;;;;;36.93;15.50;101468.19;5053210;28;45493;-88
2022/05/25 10:52:20;;;;;;;;;0.00;0.00;;;;;36.01;16.32;101485.03;5047116;28;45467;-85
2022/05/25 10:54:50;;;;;;;;;0.00;0.00;;;;;35.25;17.68;101485.50;5048201;28;45391;-85
2022/05/25 10:57:52;;;;;;;;;0.00;0.00;;;;;34.73;18.20;101492.66;5049590;28;45459;-86
2022/05/25 11:00:38;;;;;;;;;0.00;0.00;;;;;34.34;18.13;101511.63;5046129;28;46579;-86
2022/05/25 11:03:25;;;;;;;;;0.00;0.00;;;;;33.90;18.40;101512.84;5047029;28;46080;-85
2022/05/25 11:06:08;;;;;;;;;0.00;0.00;;;;;33.46;18.74;101486.34;5046063;28;45463;-85
2022/05/25 11:08:33;;;;;;;;;0.67;0.67;;;;;33.31;18.99;101516.81;5045260;28;45456;-86
2022/05/25 11:11:30;;;;;;;;;0.33;0.00;;;;;32.91;18.93;101512.78;5041551;28;45476;-85
2022/05/25 11:14:19;;;;;;;;;0.00;0.00;;;;;32.28;19.62;101480.13;5040796;28;45485;-85
2022/05/25 11:16:57;;;;;;;;;0.33;0.00;;;;;32.12;19.84;101514.31;5042573;28;45555;-86
2022/05/25 11:19:52;;;;;;;;;0.00;0.00;;;;;31.52;20.29;101452.72;5049122;28;45440;-86
2022/05/25 11:22:18;;;;;;;;;0.00;0.00;;;;;31.62;20.73;101495.69;5040958;28;45416;-86
2022/05/25 11:25:01;;;;;;;;;0.00;0.00;;;;;31.33;21.12;101506.44;5051462;28;45464;-85
2022/05/25 11:27:45;;;;;;;;;0.00;0.00;;;;;31.15;21.16;101494.03;5051805;28;45687;-86
2022/05/25 11:30:24;;;;;;;;;0.00;0.00;;;;;30.94;21.49;101491.94;5044153;28;45508;-86
2022/05/25 11:33:14;;;;;;;;;1.00;0.00;;;;;30.73;21.32;101509.94;5044155;28;46537;-85
2022/05/25 11:35:59;;;;;;;;;0.00;0.00;;;;;30.39;21.59;101502.91;5044438;28;45455;-84
2022/05/25 11:39:08;;;;;;;;;0.00;0.00;;;;;30.02;21.80;101487.88;5045509;28;45286;-84
2022/05/25 11:42:21;;;;;;;;;0.00;0.00;;;;;29.88;21.92;101513.34;5050113;28;45238;-84
2022/05/25 11:44:49;;;;;;;;;0.00;0.00;;;;;29.66;22.36;101507.53;5050437;28;46545;-83
2022/05/25 11:47:17;;;;;;;;;1.00;0.00;;;;;29.48;22.49;101504.09;5050360;28;46725;-85
2022/05/25 11:50:03;;;;;;;;;0.00;0.00;;;;;29.31;22.97;101502.38;5062004;28;45672;-86
2022/05/25 11:52:46;;;;;;;;;0.00;0.00;;;;;29.04;23.27;101499.75;5048205;28;45845;-78
2022/05/25 11:55:58;;;;;;;;;0.25;0.00;;;;;28.97;23.67;101495.97;5049896;28;46393;-78
2022/05/25 11:58:34;;;;;;;;;0.00;0.00;;;;;28.74;23.64;101500.41;5007327;28;45527;-78
2022/05/25 12:00:59;;;;;;;;;0.00;0.00;;;;;28.58;23.33;101491.09;5006020;28;45455;-77
2022/05/25 12:03:58;;;;;;;;;0.00;0.00;;;;;28.46;23.72;101497.03;5007689;28;46567;-77
2022/05/25 12:06:29;;;;;;;;;0.00;0.00;;;;;28.45;23.44;101506.25;5008227;28;46658;-77
2022/05/25 12:09:21;;;;;;;;;0.00;0.00;;;;;28.42;23.85;101502.84;5008102;28;46138;-77
2022/05/25 12:11:48;;;;;;;;;0.00;0.00;;;;;28.38;23.97;101500.59;5010951;28;45743;-77
2022/05/25 12:14:47;;;;;;;;;0.25;0.00;;;;;28.22;24.02;101511.50;5005299;28;45471;-77
2022/05/25 12:17:22;;;;;;;;;0.00;0.00;;;;;28.11;24.35;101508.00;5006150;28;46764;-77
2022/05/25 12:19:52;;;;;;;;;1.00;0.00;;;;;27.88;24.31;101498.63;5002711;28;45473;-78